NCAR-RAP Real-Time Weather Data

Output produced by METARs form (17 October 2018  16:11 UTC)
found at http://weather.rap.ucar.edu/surface/
 
RJOA 171300Z 04005KT 9999 FEW020 BKN/// 15/10 Q1014
RJOA 171200Z 01003KT 260V040 9999 FEW025 SCT040 BKN/// 16/10 Q1014
RJOA 171100Z 35003KT 330V080 9999 FEW030 BKN040 BKN/// 17/10 Q1013
RJOA 171000Z 11001KT 9999 FEW030 BKN/// 17/10 Q1013
RJOA 170900Z 06002KT 9999 FEW030 SCT040 BKN/// 17/11 Q1013
RJOA 170800Z VRB02KT 9999 FEW030 SCT040 BKN/// 18/11 Q1013
RJOA 170700Z 20004KT 140V260 9999 FEW030 BKN/// 19/10 Q1012
RJOA 170600Z 22003KT 130V300 9999 FEW030 SCT045 BKN/// 20/08 Q1012
RJOA 170500Z 36004KT 320V030 9999 FEW030 SCT040 BKN/// 20/07 Q1011
RJOA 170400Z 36006KT 9999 FEW025 SCT040 21/05 Q1012
RJOA 170300Z 25004KT 9999 FEW025 SCT040 BKN/// 19/07 Q1013
RJOA 170200Z 32005KT 270V040 9999 FEW020 BKN/// 18/09 Q1013
RJOA 170100Z 33005KT 280V360 9999 FEW020 BKN/// 17/09 Q1013
RJOA 170000Z 35005KT 9999 FEW020 SCT/// 16/10 Q1013
RJOA 162300Z VRB03KT 9999 PRFG FEW000 15/10 Q1013
RJOA 162200Z 31004KT 9999 PRFG FEW000 14/10 Q1013
RJOA 162110Z 35007KT 9999 BCFG FEW000 13/10 Q1012 RMK 1ST000 A2990 2000W FG SE AND SW-W
RJOA 161300Z 36007KT 9999 -SHRA FEW002 BKN030 BKN080 15/12 Q1012
RJOA 161200Z 01007KT 330V030 8000 -SHRA FEW002 BKN030 BKN060 15/12 Q1012
RJOA 161100Z 32007KT 9999 -SHRA FEW002 BKN030 BKN060 16/13 Q1012
RJOA 161000Z 35008KT 9999 -SHRA FEW020 BKN030 BKN070 16/13 Q1012
RJOA 160900Z 10001KT 9999 -SHRA FEW020 BKN030 BKN090 18/12 Q1012
RJOA 160800Z VRB01KT 9999 FEW020 BKN130 BKN/// 18/12 Q1012
RJOA 160700Z 14003KT 110V170 9999 FEW020 SCT130 BKN/// 18/12 Q1012
RJOA 160600Z 13004KT 090V180 9999 FEW020 SCT130 BKN170 18/12 Q1012
RJOA 160500Z 13004KT 100V170 9999 FEW020 SCT080 BKN140 19/11 Q1012
RJOA 160400Z 14004KT 070V230 9999 FEW015 SCT020 BKN/// 19/10 Q1013
RJOA 160300Z 15007KT 100V180 9999 FEW015 SCT020 BKN/// 20/12 Q1013
RJOA 160200Z 08004KT 030V120 9999 FEW015 BKN020 BKN/// 18/11 Q1014
RJOA 160100Z 05006KT 9999 FEW025 BKN/// 18/11 Q1015
RJOA 160000Z 05004KT 030V100 9999 FEW020 SCT040 BKN/// 16/10 Q1016
RJOA 152300Z VRB02KT 9999 SCT035 BKN130 BKN/// 15/09 Q1016
RJOA 152200Z 01003KT 320V070 9999 FEW025 BKN180 14/08 Q1015
RJOA 152110Z 01005KT 9999 FEW025 BKN/// 14/08 Q1016 RMK 1CU025 A3000
RJOA 151300Z 31006KT 250V350 9999 FEW025 16/07 Q1017
RJOA 151200Z 01013KT 9999 FEW025 SCT/// 16/08 Q1017
RJOA 151100Z 36009KT 290V040 9999 FEW025 17/08 Q1018
RJOA 151000Z 01009KT 9999 FEW025 BKN045 18/10 Q1017
RJOA 150900Z VRB01KT 9999 FEW025 SCT/// 18/11 Q1016
RJOA 150800Z VRB01KT 9999 FEW025 BKN/// 19/11 Q1016
RJOA 150700Z 18004KT 140V220 9999 FEW025 SCT/// 20/11 Q1016
RJOA 150600Z 20006KT 150V250 9999 FEW030 SCT/// 21/10 Q1016
RJOA 150500Z 29003KT 240V330 9999 FEW030 SCT/// 20/10 Q1016